Time;durP1;ratioP1;P1;durP2;ratioP2;P2;SDS_P1;SDS_P2;PMS_P1;PMS_P2;Temp;Humidity;BMP_temperature;BMP_pressure;BME280_temperature;BME280_humidity;BME280_pressure;Samples;Min_cycle;Max_cycle;Signal;HPM_P1;HPM_P2
2023/07/16 00:06:29;;;;;;;14.82;14.23;;;;;;;-141.02;100.00;47317.69;5134953;27;20242;-67
2023/07/16 00:09:00;;;;;;;14.60;14.10;;;;;;;-141.02;100.00;47211.97;5134507;27;20216;-58
2023/07/16 00:11:28;;;;;;;14.48;13.98;;;;;;;-141.02;100.00;47342.69;5134563;27;20193;-64
2023/07/16 00:17:16;;;;;;;14.43;13.90;;;;;;;-141.02;100.00;47038.97;5134458;27;20225;-61
2023/07/16 00:19:43;;;;;;;14.40;13.90;;;;;;;-141.02;100.00;47050.50;5134106;27;20289;-60
2023/07/16 00:22:44;;;;;;;14.27;13.77;;;;;;;-141.02;100.00;47054.34;5134276;27;20202;-57
2023/07/16 00:25:11;;;;;;;13.95;13.45;;;;;;;-141.02;100.00;47038.97;5134040;27;20245;-60
2023/07/16 00:27:38;;;;;;;13.77;13.27;;;;;;;-141.02;100.00;47038.97;5134107;27;20283;-59
2023/07/16 00:30:06;;;;;;;13.60;13.10;;;;;;;-141.02;100.00;46944.78;5134191;27;20287;-60
2023/07/16 00:32:33;;;;;;;13.90;13.40;;;;;;;-141.02;100.00;46833.31;5133995;27;20284;-66
2023/07/16 00:35:00;;;;;;;14.18;13.68;;;;;;;-141.02;100.00;46719.91;5133808;27;20271;-60
2023/07/16 00:37:27;;;;;;;14.30;13.80;;;;;;;-141.02;100.00;46750.66;5134170;27;20224;-62
2023/07/16 00:39:55;;;;;;;14.18;13.68;;;;;;;-141.02;100.00;46773.72;5134157;27;20223;-62
2023/07/16 00:45:47;;;;;;;14.07;13.57;;;;;;;-141.02;100.00;46239.44;5134191;27;20180;-59
2023/07/16 00:58:32;;;;;;;13.98;13.48;;;;;;;-141.02;100.00;45964.66;5133536;27;20582;-63
2023/07/16 01:00:59;;;;;;;13.90;13.40;;;;;;;-141.02;100.00;45899.31;5133851;27;20193;-62
2023/07/16 01:06:52;;;;;;;14.13;13.63;;;;;;;-141.02;100.00;45766.75;5133790;27;20217;-64
2023/07/16 01:09:44;;;;;;;14.48;13.98;;;;;;;-141.02;100.00;45703.34;5133659;27;20626;-60
2023/07/16 01:12:13;;;;;;;14.10;13.60;;;;;;;-141.02;100.00;45632.25;5133565;27;20200;-58
2023/07/16 01:14:43;;;;;;;14.32;13.82;;;;;;;-141.02;100.00;45739.84;5133157;27;20224;-61
2023/07/16 01:17:10;;;;;;;14.50;14.00;;;;;;;-141.02;100.00;45682.22;5133479;27;20197;-59
2023/07/16 01:20:11;;;;;;;14.18;13.68;;;;;;;-141.02;100.00;45766.75;5133331;27;20228;-62
2023/07/16 01:23:31;;;;;;;14.10;13.60;;;;;;;-141.02;100.00;45670.69;5133452;27;20199;-64
2023/07/16 01:26:43;;;;;;;13.50;13.00;;;;;;;-141.02;100.00;45574.63;5132646;27;20193;-61
2023/07/16 01:29:30;;;;;;;14.20;13.70;;;;;;;-141.02;100.00;45647.63;5132920;27;20196;-61
2023/07/16 01:32:00;;;;;;;14.20;13.70;;;;;;;-141.02;100.00;45622.66;5133340;27;20188;-64
2023/07/16 01:35:03;;;;;;;13.70;13.20;;;;;;;-141.02;100.00;45699.50;5132917;27;20722;-64
2023/07/16 01:37:40;;;;;;;13.77;13.27;;;;;;;-141.02;100.00;45705.25;5133184;27;20199;-60
2023/07/16 01:40:09;;;;;;;14.00;13.50;;;;;;;-141.02;100.00;45711.03;5133211;27;20249;-66
2023/07/16 01:42:56;;;;;;;13.82;13.32;;;;;;;-141.02;100.00;45782.13;5133182;27;20204;-60
2023/07/16 01:52:43;;;;;;;13.32;12.93;;;;;;;-141.02;100.00;45822.47;5133613;28;20172;-62
2023/07/16 01:55:42;;;;;;;13.00;12.60;;;;;;;-141.02;100.00;46031.91;5133009;28;20229;-64
2023/07/16 01:58:37;;;;;;;13.23;12.82;;;;;;;-141.02;100.00;46093.41;5132744;28;20223;-57
2023/07/16 02:01:04;;;;;;;13.00;12.60;;;;;;;-141.02;100.00;46110.69;5132787;27;20188;-57
2023/07/16 02:03:31;;;;;;;13.20;12.80;;;;;;;-141.02;100.00;46020.38;5133202;28;20192;-65
2023/07/16 02:06:17;;;;;;;13.20;12.80;;;;;;;-141.02;100.00;46220.22;5132602;28;20218;-66
2023/07/16 02:08:46;;;;;;;13.35;12.95;;;;;;;-141.02;100.00;46312.47;5132899;27;20200;-65
2023/07/16 02:11:20;;;;;;;12.98;12.57;;;;;;;-141.02;100.00;46485.44;5132969;27;20616;-66
2023/07/16 02:13:47;;;;;;;12.73;12.32;;;;;;;-141.02;100.00;46677.63;5132878;27;20561;-63
2023/07/16 02:20:26;;;;;;;12.25;11.85;;;;;;;-141.02;100.00;46819.84;5132711;28;20740;-61
2023/07/16 02:22:53;;;;;;;12.30;11.90;;;;;;;-141.02;100.00;46890.97;5112237;28;20197;-62
2023/07/16 02:25:34;;;;;;;12.35;11.95;;;;;;;-141.02;100.00;46981.31;5111904;28;20197;-66
2023/07/16 02:28:02;;;;;;;12.23;11.82;;;;;;;-141.02;100.00;47094.72;5111870;28;20284;-59
2023/07/16 02:30:29;;;;;;;12.30;11.90;;;;;;;-141.02;100.00;47388.81;5111353;28;20197;-58
2023/07/16 02:39:40;;;;;;;12.70;12.30;;;;;;;-141.02;100.00;47523.38;5115874;28;20246;-66
2023/07/16 02:42:08;;;;;;;12.90;12.50;;;;;;;-141.02;100.00;47742.53;5115644;28;20224;-63
2023/07/16 02:44:41;;;;;;;12.25;11.85;;;;;;;-141.02;100.00;48054.00;5115498;28;20770;-57
2023/07/16 02:50:51;;;;;;;11.60;11.30;;;;;;;-141.02;100.00;48723.19;5115809;28;20226;-58
2023/07/16 02:56:40;;;;;;;12.00;11.60;;;;;;;-141.02;100.00;49446.34;5115361;28;20211;-66
2023/07/16 03:05:51;;;;;;;12.13;11.73;;;;;;;-141.02;100.00;50679.56;5115509;28;20212;-66
2023/07/16 03:08:19;;;;;;;12.02;11.63;;;;;;;-141.02;100.00;51239.53;5115123;28;20301;-63
2023/07/16 03:15:03;;;;;;;12.40;12.00;;;;;;;-141.02;100.00;52194.25;5115159;28;20268;-64
2023/07/16 03:17:30;;;;;;;12.13;11.73;;;;;;;-141.02;100.00;51882.41;5114930;28;20233;-62
2023/07/16 03:19:58;;;;;;;12.52;12.13;;;;;;;-141.02;100.00;51636.03;5114947;28;20703;-66
2023/07/16 03:23:17;;;;;;;12.82;12.43;;;;;;;-141.02;100.00;51824.66;5114898;28;20192;-64
2023/07/16 03:29:07;;;;;;;13.05;12.65;;;;;;;-141.02;100.00;51845.84;5114754;28;20650;-62
2023/07/16 03:31:34;;;;;;;12.95;12.55;;;;;;;-141.02;100.00;51936.31;5114989;28;20233;-63
2023/07/16 03:34:01;;;;;;;12.85;12.45;;;;;;;-141.02;100.00;52232.75;5115037;28;20271;-61
2023/07/16 03:36:28;;;;;;;12.82;12.43;;;;;;;-141.02;100.00;52448.38;5114881;28;20224;-64
2023/07/16 03:38:55;;;;;;;13.07;12.68;;;;;;;-141.02;100.00;52764.13;5114776;28;20250;-57
2023/07/16 03:41:22;;;;;;;13.18;12.77;;;;;;;-141.02;100.00;53089.53;5114818;28;20634;-64
2023/07/16 03:43:49;;;;;;;13.48;13.07;;;;;;;-141.02;100.00;53455.41;5114819;28;20284;-63
2023/07/16 03:46:18;;;;;;;13.88;13.38;;;;;;;-141.02;100.00;52843.06;5114429;28;20626;-64
2023/07/16 03:48:45;;;;;;;14.23;13.73;;;;;;;-141.02;100.00;54102.53;5113924;28;20197;-58
2023/07/16 03:51:12;;;;;;;14.25;13.75;;;;;;;-141.02;100.00;53892.59;5114574;28;20705;-60
2023/07/16 03:53:39;;;;;;;14.30;13.80;;;;;;;-141.02;100.00;53401.50;5114530;28;20280;-62
2023/07/16 03:56:06;;;;;;;15.02;14.43;;;;;;;-141.02;100.00;53420.75;5114160;28;20254;-63
2023/07/16 03:58:33;;;;;;;15.43;14.82;;;;;;;-141.02;100.00;53368.75;5114736;28;20250;-62
2023/07/16 04:01:00;;;;;;;15.18;14.57;;;;;;;-141.02;100.00;53272.47;5114518;28;20189;-61
2023/07/16 04:03:29;;;;;;;15.02;14.43;;;;;;;-141.02;100.00;53405.34;5114366;28;20289;-59
2023/07/16 04:06:03;;;;;;;15.50;14.90;;;;;;;-141.02;100.00;53176.19;5114282;28;20193;-60
2023/07/16 04:08:30;;;;;;;15.70;15.10;;;;;;;-141.02;100.00;52995.19;5114336;28;20692;-62
2023/07/16 04:10:57;;;;;;;16.08;15.38;;;;;;;-141.02;100.00;53122.28;5113880;28;20194;-66
2023/07/16 04:13:24;;;;;;;15.73;15.02;;;;;;;-141.02;100.00;53341.78;5114218;28;20193;-61
2023/07/16 04:15:52;;;;;;;15.65;15.05;;;;;;;-141.02;100.00;53314.84;5113720;28;20685;-58
2023/07/16 04:18:20;;;;;;;15.88;15.18;;;;;;;-141.02;100.00;53567.13;5113551;28;20237;-65
2023/07/16 04:20:48;;;;;;;16.25;15.55;;;;;;;-141.02;100.00;52895.06;5114050;28;20570;-61
2023/07/16 04:23:15;;;;;;;16.17;15.48;;;;;;;-141.02;100.00;53180.03;5113672;28;20228;-63
2023/07/16 04:25:42;;;;;;;16.60;15.90;;;;;;;-141.02;100.00;53295.56;5113717;28;20204;-60
2023/07/16 04:28:11;;;;;;;16.85;16.15;;;;;;;-141.02;100.00;53684.59;5113820;28;20193;-57
2023/07/16 04:30:38;;;;;;;17.45;16.65;;;;;;;-141.02;100.00;53388.00;5113506;27;20224;-65
2023/07/16 04:33:06;;;;;;;18.05;17.25;;;;;;;-141.02;100.00;53141.53;5113689;28;20728;-66
2023/07/16 04:35:33;;;;;;;18.25;17.38;;;;;;;-141.02;100.00;53553.63;5113666;28;20264;-65
2023/07/16 04:38:02;;;;;;;18.35;17.45;;;;;;;-141.02;99.91;53688.44;5113448;28;20222;-65
2023/07/16 04:40:30;;;;;;;18.70;17.80;;;;;;;-141.02;98.32;53825.19;5113661;28;20193;-66
2023/07/16 04:42:57;;;;;;;18.85;17.95;;;;;;;-141.02;98.26;53661.47;5113326;28;20247;-64
2023/07/16 04:45:24;;;;;;;18.42;17.52;;;;;;;-141.02;97.54;53312.91;5113191;28;20237;-63
2023/07/16 04:47:51;;;;;;;17.83;16.92;;;;;;;-141.02;97.71;54008.16;5113242;28;20624;-60
2023/07/16 04:50:18;;;;;;;17.67;16.88;;;;;;;-141.02;96.47;53871.41;5113430;28;20225;-57
2023/07/16 04:52:45;;;;;;;18.15;17.25;;;;;;;-141.02;96.87;53755.84;5113480;28;20201;-62
2023/07/16 04:55:14;;;;;;;18.15;17.25;;;;;;;-141.02;96.95;53811.72;5112978;28;20674;-61
2023/07/16 04:57:41;;;;;;;18.40;17.50;;;;;;;-141.02;96.11;53626.81;5112979;28;20553;-63
2023/07/16 05:00:09;;;;;;;18.02;17.13;;;;;;;-141.02;97.38;53199.28;5113041;28;20208;-65
2023/07/16 05:02:36;;;;;;;17.70;16.90;;;;;;;-141.02;96.85;53594.06;5113253;28;20228;-65
2023/07/16 05:05:03;;;;;;;16.92;16.13;;;;;;;-141.02;95.70;53757.78;5112992;28;20659;-60
2023/07/16 05:07:30;;;;;;;17.30;16.50;;;;;;;-141.02;95.10;54562.94;5112893;28;20239;-64
2023/07/16 05:09:57;;;;;;;17.55;16.65;;;;;;;-141.02;93.86;54632.28;5113160;28;20225;-57
2023/07/16 05:12:26;;;;;;;17.58;16.67;;;;;;;-141.02;94.92;54324.06;5113181;28;20193;-59
2023/07/16 05:14:53;;;;;;;16.95;16.15;;;;;;;-141.02;94.32;54875.03;5113062;28;20221;-58
2023/07/16 05:17:20;;;;;;;17.38;16.48;;;;;;;-141.02;94.61;54320.22;5113010;28;20331;-60
2023/07/16 05:19:47;;;;;;;17.33;16.42;;;;;;;-141.02;93.84;53696.16;5112598;28;20269;-58
2023/07/16 05:22:14;;;;;;;17.50;16.60;;;;;;;-141.02;95.07;53696.16;5112888;28;20269;-59
2023/07/16 05:24:41;;;;;;;17.25;16.38;;;;;;;-141.02;96.46;54520.56;5112945;28;20272;-66
2023/07/16 05:27:08;;;;;;;17.50;16.60;;;;;;;-141.02;94.40;54002.38;5112525;28;20275;-60
2023/07/16 05:29:36;;;;;;;17.63;16.73;;;;;;;-141.02;94.44;53280.16;5112608;28;20280;-59
2023/07/16 05:32:04;;;;;;;17.40;16.58;;;;;;;-141.02;95.13;53636.44;5112411;28;20193;-59
2023/07/16 05:34:31;;;;;;;16.88;15.98;;;;;;;-141.02;93.91;53551.72;5112830;28;20658;-66
2023/07/16 05:36:58;;;;;;;17.60;16.60;;;;;;;-141.02;93.83;53193.50;5112544;28;20313;-60
2023/07/16 05:39:25;;;;;;;17.70;16.70;;;;;;;-141.02;93.36;53780.88;5112449;28;20196;-60
2023/07/16 05:41:52;;;;;;;17.00;16.10;;;;;;;-141.02;95.04;53576.75;5112412;28;20193;-63
2023/07/16 05:44:20;;;;;;;17.88;16.98;;;;;;;-141.02;94.73;53854.06;5112312;28;20554;-65
2023/07/16 05:46:48;;;;;;;16.83;16.02;;;;;;;-141.02;94.55;53788.59;5112750;28;20193;-65
2023/07/16 05:49:15;;;;;;;16.45;15.65;;;;;;;-141.02;93.80;53682.66;5112763;28;20560;-65
2023/07/16 05:51:42;;;;;;;16.45;15.65;;;;;;;-141.02;94.29;54470.47;5112757;28;20189;-62
2023/07/16 05:54:09;;;;;;;16.55;15.75;;;;;;;-141.02;93.50;54566.78;5112882;28;20200;-65
2023/07/16 05:56:36;;;;;;;17.05;16.15;;;;;;;-141.02;92.34;54406.91;5112188;28;20233;-61
2023/07/16 05:59:03;;;;;;;16.55;15.75;;;;;;;-141.02;95.02;53854.06;5112653;28;20189;-60
2023/07/16 06:01:31;;;;;;;16.27;15.48;;;;;;;-141.02;95.13;54420.38;5112168;28;20655;-60
2023/07/16 06:03:59;;;;;;;17.17;16.27;;;;;;;-141.02;94.01;53877.19;5112244;28;20236;-65
2023/07/16 06:06:29;;;;;;;17.00;16.17;;;;;;;-141.02;93.30;54817.22;5112580;28;20254;-65
2023/07/16 06:08:56;;;;;;;17.08;16.17;;;;;;;-141.02;93.53;55086.97;5112169;28;20667;-63
2023/07/16 06:11:23;;;;;;;16.98;16.08;;;;;;;-141.02;92.46;54963.66;5113137;28;20284;-61
2023/07/16 06:13:50;;;;;;;16.70;15.90;;;;;;;-141.02;95.07;55713.19;5117394;28;20276;-62
2023/07/16 06:16:17;;;;;;;17.33;16.42;;;;;;;-141.02;92.50;55534.00;5116144;28;20267;-59
2023/07/16 06:18:44;;;;;;;17.27;16.38;;;;;;;-141.02;94.63;57573.34;5116037;28;20233;-65
2023/07/16 06:21:12;;;;;;;18.00;17.10;;;;;;;-141.02;93.40;58232.84;5116491;28;20197;-57
2023/07/16 06:23:40;;;;;;;18.55;17.55;;;;;;;-141.02;89.89;56040.81;5116110;28;20189;-57
2023/07/16 06:26:07;;;;;;;18.40;17.40;;;;;;;-141.02;91.56;56952.53;5116022;28;20663;-66
2023/07/16 06:28:34;;;;;;;17.88;16.98;;;;;;;-141.02;91.26;56690.38;5116412;28;20246;-61
2023/07/16 06:31:01;;;;;;;18.35;17.35;;;;;;;-141.02;89.34;56451.34;5115847;28;20229;-58
2023/07/16 06:33:28;;;;;;;18.67;17.67;;;;;;;-141.02;88.44;56196.94;5115888;28;20197;-63
2023/07/16 06:35:55;;;;;;;18.27;17.27;;;;;;;-141.02;88.97;56131.41;5115791;28;20221;-58
2023/07/16 06:38:23;;;;;;;18.45;17.45;;;;;;;-141.02;88.17;56439.78;5116297;28;20254;-61
2023/07/16 06:40:54;;;;;;;18.35;17.35;;;;;;;-141.02;89.99;57847.16;5116050;28;20240;-60
2023/07/16 06:43:21;;;;;;;18.77;17.77;;;;;;;-141.02;87.13;57284.13;5115970;28;20185;-64
2023/07/16 06:45:50;;;;;;;19.02;18.02;;;;;;;-141.02;86.39;56908.19;5115656;28;20296;-65
2023/07/16 06:48:17;;;;;;;19.17;18.17;;;;;;;-141.02;87.75;57554.06;5115510;28;20280;-64
2023/07/16 06:50:44;;;;;;;18.75;17.75;;;;;;;-141.02;87.85;56890.84;5115570;28;20201;-58
2023/07/16 06:53:11;;;;;;;18.95;17.95;;;;;;;-141.02;87.55;57056.66;5115871;28;20197;-64
2023/07/16 06:55:40;;;;;;;18.88;17.88;;;;;;;-141.02;87.39;58240.56;5115723;28;20196;-62
2023/07/16 06:58:11;;;;;;;19.13;18.13;;;;;;;-141.02;84.48;56385.81;5115375;28;20280;-64
2023/07/16 07:00:38;;;;;;;19.15;18.15;;;;;;;-141.02;84.22;56567.00;5115673;28;20280;-66
2023/07/16 07:03:05;;;;;;;18.80;17.80;;;;;;;-141.02;83.94;56306.78;5115285;28;20246;-62
2023/07/16 07:05:32;;;;;;;18.98;17.98;;;;;;;-141.02;83.35;57035.44;5115633;28;20272;-59
2023/07/16 07:07:59;;;;;;;19.25;18.25;;;;;;;-141.02;85.51;57276.44;5115468;28;20270;-66
2023/07/16 07:10:26;;;;;;;19.30;18.30;;;;;;;-141.02;83.93;56698.09;5115127;28;20711;-58
2023/07/16 07:12:54;;;;;;;69.78;66.13;;;;;;;-141.02;83.78;58151.84;5115291;28;20284;-59
2023/07/16 07:15:21;;;;;;;67.82;64.32;;;;;;;-141.02;83.49;58944.53;5114952;28;20236;-63
2023/07/16 07:17:49;;;;;;;48.50;45.72;;;;;;;-141.02;84.37;58487.41;5114622;28;20225;-59
2023/07/16 07:20:16;;;;;;;19.30;18.30;;;;;;;-141.02;83.24;59228.09;5115375;28;20185;-60
2023/07/16 07:22:44;;;;;;;19.67;18.63;;;;;;;-141.02;82.07;57943.56;5114423;28;20683;-58
2023/07/16 07:25:11;;;;;;;19.80;18.70;;;;;;;-141.02;83.02;59475.03;5114452;28;20193;-60
2023/07/16 07:27:38;;;;;;;19.92;18.83;;;;;;;-141.02;84.14;58981.19;5114823;28;20203;-64
2023/07/16 07:30:08;;;;;;;19.30;18.30;;;;;;;-141.02;82.22;59721.97;5114641;28;20726;-60
2023/07/16 07:32:38;;;;;;;19.77;18.67;;;;;;;-141.02;80.45;60215.94;5114713;28;20200;-64
2023/07/16 07:35:06;;;;;;;19.85;18.75;;;;;;;-141.02;80.38;60709.94;5114509;28;20190;-62
2023/07/16 07:37:33;;;;;;;20.30;19.20;;;;;;;-141.02;80.42;60957.00;5114915;28;20229;-58
2023/07/16 07:40:00;;;;;;;19.92;18.83;;;;;;;-141.02;78.46;60215.94;5114596;28;20734;-64
2023/07/16 07:42:28;;;;;;;19.98;18.88;;;;;;;-141.02;78.25;60462.94;5114491;28;20225;-59
2023/07/16 07:44:55;;;;;;;20.08;18.98;;;;;;;-141.02;78.41;61204.03;5114586;28;20236;-62
2023/07/16 07:47:23;;;;;;;20.02;18.92;;;;;;;-141.02;79.96;62439.59;5114401;28;20200;-65
2023/07/16 07:49:52;;;;;;;20.88;19.67;;;;;;;-141.02;77.46;61698.22;5114417;28;20197;-63
2023/07/16 07:52:19;;;;;;;20.10;19.00;;;;;;;-141.02;79.04;62192.44;5114331;28;20239;-59
2023/07/16 07:54:46;;;;;;;20.73;19.63;;;;;;;-141.02;78.51;61698.22;5114228;28;20706;-61
2023/07/16 07:57:13;;;;;;;21.30;20.10;;;;;;;-141.02;78.46;61204.03;5114214;28;20316;-59
2023/07/16 07:59:40;;;;;;;21.38;20.17;;;;;;;-141.02;77.51;60215.94;5114411;28;20200;-62
2023/07/16 08:02:07;;;;;;;21.08;19.88;;;;;;;-141.02;77.84;59721.97;5114118;28;20197;-62
2023/07/16 08:04:35;;;;;;;21.42;20.23;;;;;;;-141.02;75.02;60462.94;5114536;28;20228;-66
2023/07/16 08:07:03;;;;;;;21.45;20.25;;;;;;;-141.02;75.23;61451.13;5114281;28;20276;-67
2023/07/16 08:09:30;;;;;;;21.60;20.40;;;;;;;-141.02;73.41;62192.44;5113968;28;20201;-60
2023/07/16 08:11:57;;;;;;;22.20;21.00;;;;;;;-141.02;75.03;62686.75;5114151;28;20193;-58
2023/07/16 08:14:24;;;;;;;20.30;19.10;;;;;;;-141.02;72.64;61698.22;5113940;28;20235;-61
2023/07/16 08:16:51;;;;;;;21.27;20.08;;;;;;;-141.02;72.84;62192.44;5113573;28;20311;-63
2023/07/16 08:19:18;;;;;;;20.67;19.48;;;;;;;-141.02;72.91;62933.94;5113576;28;20319;-60
2023/07/16 08:21:46;;;;;;;20.63;19.45;;;;;;;-141.02;71.65;62192.44;5113878;28;20189;-60
2023/07/16 08:24:13;;;;;;;20.25;19.13;;;;;;;-141.02;70.93;62933.94;5114695;28;20200;-59
2023/07/16 08:26:40;;;;;;;21.40;20.20;;;;;;;-141.02;73.49;63675.59;5113626;28;20706;-60
2023/07/16 08:29:07;;;;;;;20.75;19.55;;;;;;;-141.02;70.19;61945.31;5113826;28;20199;-59
2023/07/16 08:31:34;;;;;;;21.23;20.02;;;;;;;-141.02;71.58;63181.16;5113915;28;20224;-63
2023/07/16 08:34:01;;;;;;;22.35;21.05;;;;;;;-141.02;71.21;63428.38;5113509;28;20276;-63
2023/07/16 08:36:28;;;;;;;21.02;19.83;;;;;;;-141.02;70.36;63428.38;5113762;28;20197;-59
2023/07/16 08:38:57;;;;;;;21.15;19.95;;;;;;;-141.02;71.73;64664.72;5113547;28;20189;-61
2023/07/16 08:41:24;;;;;;;21.55;20.35;;;;;;;-141.02;68.86;63428.38;5113347;28;20283;-67
2023/07/16 08:43:52;;;;;;;21.83;20.63;;;;;;;-141.02;70.43;61945.31;5113653;28;20197;-59
2023/07/16 08:46:19;;;;;;;21.60;20.40;;;;;;;-141.02;70.03;61945.31;5113403;28;20193;-63
2023/07/16 08:48:46;;;;;;;21.88;20.67;;;;;;;-141.02;71.74;62933.94;5113289;28;20280;-59
2023/07/16 08:51:16;;;;;;;22.35;21.15;;;;;;;-141.02;71.83;62192.44;5113578;28;20193;-63
2023/07/16 08:53:43;;;;;;;22.23;21.02;;;;;;;-141.02;71.70;64170.13;5113509;28;20193;-64
2023/07/16 08:56:11;;;;;;;23.27;21.83;;;;;;;-141.02;69.83;64417.41;5113139;28;20267;-63
2023/07/16 08:58:39;;;;;;;22.05;20.85;;;;;;;-141.02;66.62;62686.75;5112895;28;20228;-65
2023/07/16 09:01:07;;;;;;;22.10;20.90;;;;;;;-141.02;66.30;62933.94;5113038;28;20888;-58
2023/07/16 09:03:34;;;;;;;21.55;20.35;;;;;;;-141.02;65.62;64664.72;5112933;28;20200;-64
2023/07/16 09:06:01;;;;;;;20.88;19.67;;;;;;;-141.02;66.95;65159.41;5113288;28;20199;-61
2023/07/16 09:08:29;;;;;;;20.83;19.63;;;;;;;-141.02;65.59;63428.38;5113165;28;20201;-66
2023/07/16 09:10:57;;;;;;;21.52;20.23;;;;;;;-141.02;66.12;62439.59;5113092;28;20204;-60
2023/07/16 09:13:27;;;;;;;20.77;19.58;;;;;;;-141.02;66.49;62192.44;5113196;28;20272;-59
2023/07/16 09:15:54;;;;;;;20.52;19.23;;;;;;;-141.02;66.74;61204.03;5112762;28;20193;-64
2023/07/16 09:18:21;;;;;;;21.00;19.80;;;;;;;-141.02;66.05;62439.59;5112664;28;20236;-61
2023/07/16 09:20:49;;;;;;;20.67;19.48;;;;;;;-141.02;66.30;64664.72;5112643;28;20663;-65
2023/07/16 09:23:18;;;;;;;20.80;19.60;;;;;;;-141.02;63.88;62686.75;5113015;28;20224;-62
2023/07/16 09:25:45;;;;;;;20.75;19.55;;;;;;;-141.02;65.23;64170.13;5112608;28;20656;-62
2023/07/16 09:28:13;;;;;;;21.27;20.08;;;;;;;-141.02;64.74;62933.94;5112808;28;20211;-67
2023/07/16 09:30:41;;;;;;;20.88;19.67;;;;;;;-141.02;65.05;61451.13;5113106;28;20584;-63
2023/07/16 09:33:13;;;;;;;20.65;19.45;;;;;;;-141.02;64.04;60957.00;5112812;28;20284;-60
2023/07/16 09:35:40;;;;;;;20.80;19.60;;;;;;;-141.02;62.67;62192.44;5112764;28;20204;-66
2023/07/16 09:38:09;;;;;;;21.15;19.95;;;;;;;-141.02;62.68;61698.22;5112595;28;20275;-60
2023/07/16 09:40:37;;;;;;;20.85;19.65;;;;;;;-141.02;63.32;62933.94;5112684;28;20771;-60
2023/07/16 09:43:05;;;;;;;21.10;19.90;;;;;;;-141.02;62.56;62686.75;5112390;28;20659;-59
2023/07/16 09:45:32;;;;;;;22.48;21.17;;;;;;;-141.02;63.84;63428.38;5112269;28;20205;-66
2023/07/16 09:48:00;;;;;;;22.20;20.90;;;;;;;-141.02;62.68;62192.44;5112274;28;20382;-63
2023/07/16 09:50:29;;;;;;;55.38;52.17;;;;;;;-141.02;63.91;64170.13;5112296;28;20229;-63
2023/07/16 09:52:57;;;;;;;63.67;60.08;;;;;;;-141.02;62.87;64664.72;5112303;28;20240;-67
2023/07/16 09:55:25;;;;;;;66.05;62.25;;;;;;;-141.02;62.53;63675.59;5112539;28;20193;-62
2023/07/16 09:57:56;;;;;;;22.90;21.60;;;;;;;-141.02;62.07;62933.94;5112375;28;20737;-61
2023/07/16 10:00:24;;;;;;;63.00;59.40;;;;;;;-141.02;63.55;61945.31;5112578;28;20186;-61
2023/07/16 10:02:53;;;;;;;50.83;47.72;;;;;;;-141.02;64.54;63428.38;5112521;28;20233;-58
2023/07/16 10:05:27;;;;;;;46.38;43.63;;;;;;;-141.02;62.85;63675.59;5112440;28;20193;-59
2023/07/16 10:07:58;;;;;;;39.75;37.55;;;;;;;-141.02;62.71;64417.41;5112356;28;20654;-65
2023/07/16 10:10:28;;;;;;;36.83;34.83;;;;;;;-141.02;63.03;64170.13;5112279;28;20192;-66
2023/07/16 10:12:59;;;;;;;22.67;21.38;;;;;;;-141.02;63.34;64664.72;5112117;28;20266;-62
2023/07/16 10:15:28;;;;;;;23.30;22.00;;;;;;;-141.02;64.65;65654.13;5112165;28;20192;-61
2023/07/16 10:17:56;;;;;;;23.15;21.85;;;;;;;-141.02;61.98;64170.13;5112309;28;20221;-65
2023/07/16 10:20:32;;;;;;;22.08;20.77;;;;;;;-141.02;61.18;63675.59;5112134;28;20239;-62
2023/07/16 10:22:59;;;;;;;21.25;19.95;;;;;;;-141.02;61.90;65654.13;5111986;28;20193;-61
2023/07/16 10:25:29;;;;;;;22.40;21.10;;;;;;;-141.02;60.55;64417.41;5112027;28;20231;-61
2023/07/16 10:27:56;;;;;;;26.35;24.88;;;;;;;-141.02;60.85;65654.13;5112337;28;20268;-63
2023/07/16 10:30:24;;;;;;;51.97;48.88;;;;;;;-141.02;58.82;64417.41;5112238;28;20291;-63
2023/07/16 10:32:53;;;;;;;22.20;21.00;;;;;;;-141.02;60.21;64170.13;5111935;28;20675;-59
2023/07/16 10:35:20;;;;;;;22.42;21.15;;;;;;;-141.02;60.88;63922.84;5112404;28;20220;-60
2023/07/16 10:37:48;;;;;;;21.98;20.77;;;;;;;-141.02;58.33;63181.16;5112252;28;20225;-67
2023/07/16 10:40:17;;;;;;;22.45;21.17;;;;;;;-141.02;60.92;65406.75;5112141;28;20220;-62
2023/07/16 10:42:46;;;;;;;21.88;20.58;;;;;;;-141.02;59.95;62933.94;5112076;28;20651;-61
2023/07/16 10:45:14;;;;;;;41.60;39.20;;;;;;;-141.02;59.43;62933.94;5112076;28;20627;-62
2023/07/16 10:47:54;;;;;;;48.05;45.28;;;;;;;-141.02;62.49;64170.13;5111828;28;20197;-64
2023/07/16 10:50:22;;;;;;;44.30;41.80;;;;;;;-141.02;60.42;63181.16;5112057;28;20700;-58
2023/07/16 10:52:53;;;;;;;22.55;21.25;;;;;;;-141.02;59.94;64417.41;5112135;28;20203;-64
2023/07/16 10:55:21;;;;;;;22.42;21.17;;;;;;;-141.02;61.00;65159.41;5111858;28;20190;-62
2023/07/16 10:57:49;;;;;;;22.48;21.17;;;;;;;-141.02;57.33;63675.59;5112915;28;20320;-67
2023/07/16 11:00:16;;;;;;;22.55;21.25;;;;;;;-141.02;57.50;63428.38;5115976;28;20670;-66
2023/07/16 11:02:44;;;;;;;22.92;21.63;;;;;;;-141.02;57.77;63428.38;5115241;28;20560;-64
2023/07/16 11:05:11;;;;;;;23.17;21.88;;;;;;;-141.02;59.20;62686.75;5115629;28;20192;-67
2023/07/16 11:07:39;;;;;;;22.40;21.10;;;;;;;-141.02;57.37;61451.13;5115157;28;20679;-61
2023/07/16 11:10:09;;;;;;;23.20;21.90;;;;;;;-141.02;58.14;62686.75;5115192;28;20193;-66
2023/07/16 11:12:36;;;;;;;22.95;21.65;;;;;;;-141.02;60.25;64912.06;5115929;28;20232;-60
2023/07/16 11:15:03;;;;;;;22.73;21.42;;;;;;;-141.02;57.01;63428.38;5115375;28;20291;-67
2023/07/16 11:17:30;;;;;;;22.17;20.83;;;;;;;-141.02;57.28;63428.38;5115184;28;20224;-63
2023/07/16 11:20:00;;;;;;;23.42;22.02;;;;;;;-141.02;57.22;63428.38;5115044;28;20231;-68
2023/07/16 11:22:28;;;;;;;83.65;79.10;;;;;;;-141.02;57.32;65159.41;5114884;28;20575;-67
2023/07/16 11:24:55;;;;;;;57.55;54.05;;;;;;;-141.02;54.83;64170.13;5114949;28;20193;-67
2023/07/16 11:27:24;;;;;;;53.53;50.28;;;;;;;-141.02;54.92;63428.38;5115081;28;20730;-68
2023/07/16 11:29:53;;;;;;;51.33;48.25;;;;;;;-141.02;55.54;63428.38;5114691;28;20196;-62
2023/07/16 11:32:30;;;;;;;49.35;46.45;;;;;;;-141.02;53.36;61451.13;5114963;28;20224;-65
2023/07/16 11:34:59;;;;;;;23.63;22.33;;;;;;;-141.02;54.91;60957.00;5115022;28;20246;-59
2023/07/16 11:37:26;;;;;;;22.83;21.55;;;;;;;-141.02;54.36;60215.94;5114900;28;20192;-58
2023/07/16 11:39:57;;;;;;;23.33;22.02;;;;;;;-141.02;54.27;60957.00;5114612;28;20232;-64
2023/07/16 11:42:29;;;;;;;22.63;21.33;;;;;;;-141.02;54.31;59968.94;5114848;28;20189;-61
2023/07/16 11:44:57;;;;;;;22.88;21.58;;;;;;;-141.02;54.85;60462.94;5115076;28;20185;-67
2023/07/16 11:47:24;;;;;;;23.05;21.75;;;;;;;-141.02;55.69;62933.94;5115044;27;20236;-65
2023/07/16 11:49:51;;;;;;;56.28;52.83;;;;;;;-141.02;54.94;64170.13;5114408;28;20737;-66
2023/07/16 11:52:21;;;;;;;48.53;45.63;;;;;;;-141.02;53.83;63922.84;5114278;28;20591;-67
2023/07/16 11:54:48;;;;;;;50.47;47.47;;;;;;;-141.02;51.78;59968.94;5114600;28;20193;-67
2023/07/16 11:57:16;;;;;;;49.58;46.58;;;;;;;-141.02;51.63;61204.03;5114521;28;20275;-67
2023/07/16 11:59:44;;;;;;;49.17;46.28;;;;;;;-141.02;51.75;60462.94;5114390;28;20275;-68
2023/07/16 12:02:11;;;;;;;23.50;22.10;;;;;;;-141.02;52.19;61451.13;5114459;28;20245;-67
2023/07/16 12:04:38;;;;;;;23.58;22.27;;;;;;;-141.02;51.07;61204.03;5114087;28;20714;-65
2023/07/16 12:07:05;;;;;;;22.50;21.20;;;;;;;-141.02;49.89;59164.44;5114103;28;20242;-64
2023/07/16 12:09:32;;;;;;;23.15;21.85;;;;;;;-141.02;49.72;58444.97;5113705;28;20615;-67
2023/07/16 12:12:01;;;;;;;23.90;22.55;;;;;;;-141.02;50.42;60215.94;5113948;28;20228;-67
2023/07/16 12:14:28;;;;;;;48.78;45.90;;;;;;;-141.02;48.42;57353.53;5114239;28;20237;-65